sensor_id;sensor_type;location;lat;lon;timestamp;P1;durP1;ratioP1;P2;durP2;ratioP2
50555;SDS011;36508;52.512;13.450;2023-07-31T00:02:22;1.93;;;1.73;;
50555;SDS011;36508;52.512;13.450;2023-07-31T00:04:47;4.20;;;1.93;;
50555;SDS011;36508;52.512;13.450;2023-07-31T00:07:14;1.97;;;1.50;;
50555;SDS011;36508;52.512;13.450;2023-07-31T00:09:39;5.87;;;2.20;;
50555;SDS011;36508;52.512;13.450;2023-07-31T00:12:05;1.90;;;1.80;;
50555;SDS011;36508;52.512;13.450;2023-07-31T00:14:31;3.00;;;2.80;;
50555;SDS011;36508;52.512;13.450;2023-07-31T00:16:56;4.13;;;2.00;;
50555;SDS011;36508;52.512;13.450;2023-07-31T00:19:22;4.43;;;2.73;;
50555;SDS011;36508;52.512;13.450;2023-07-31T00:21:47;2.77;;;2.07;;
50555;SDS011;36508;52.512;13.450;2023-07-31T00:24:13;3.67;;;2.77;;
50555;SDS011;36508;52.512;13.450;2023-07-31T00:26:38;4.40;;;2.30;;
50555;SDS011;36508;52.512;13.450;2023-07-31T00:29:04;2.53;;;2.33;;
50555;SDS011;36508;52.512;13.450;2023-07-31T00:31:30;4.40;;;1.70;;
50555;SDS011;36508;52.512;13.450;2023-07-31T00:33:55;2.70;;;1.93;;
50555;SDS011;36508;52.512;13.450;2023-07-31T00:36:21;2.03;;;1.73;;
50555;SDS011;36508;52.512;13.450;2023-07-31T00:38:46;4.10;;;2.07;;
50555;SDS011;36508;52.512;13.450;2023-07-31T00:41:12;3.07;;;2.77;;
50555;SDS011;36508;52.512;13.450;2023-07-31T00:43:38;2.30;;;2.10;;
50555;SDS011;36508;52.512;13.450;2023-07-31T00:46:03;3.57;;;1.83;;
50555;SDS011;36508;52.512;13.450;2023-07-31T00:48:30;2.27;;;1.93;;
50555;SDS011;36508;52.512;13.450;2023-07-31T00:50:56;3.43;;;2.73;;
50555;SDS011;36508;52.512;13.450;2023-07-31T00:53:21;2.43;;;2.23;;
50555;SDS011;36508;52.512;13.450;2023-07-31T00:55:48;3.87;;;2.40;;
50555;SDS011;36508;52.512;13.450;2023-07-31T00:58:13;2.47;;;2.23;;
50555;SDS011;36508;52.512;13.450;2023-07-31T01:00:39;2.43;;;2.23;;
50555;SDS011;36508;52.512;13.450;2023-07-31T01:03:07;2.57;;;2.37;;
50555;SDS011;36508;52.512;13.450;2023-07-31T01:05:36;4.67;;;3.63;;
50555;SDS011;36508;52.512;13.450;2023-07-31T01:11:10;4.77;;;3.87;;
50555;SDS011;36508;52.512;13.450;2023-07-31T01:13:46;3.07;;;2.87;;
50555;SDS011;36508;52.512;13.450;2023-07-31T01:16:12;3.30;;;3.00;;
50555;SDS011;36508;52.512;13.450;2023-07-31T01:18:38;5.00;;;3.60;;
50555;SDS011;36508;52.512;13.450;2023-07-31T01:21:06;10.50;;;4.13;;
50555;SDS011;36508;52.512;13.450;2023-07-31T01:27:24;3.90;;;3.57;;
50555;SDS011;36508;52.512;13.450;2023-07-31T01:29:47;3.90;;;3.60;;
50555;SDS011;36508;52.512;13.450;2023-07-31T01:32:17;3.67;;;2.73;;
50555;SDS011;36508;52.512;13.450;2023-07-31T01:34:44;6.40;;;4.10;;
50555;SDS011;36508;52.512;13.450;2023-07-31T01:37:12;3.57;;;3.37;;
50555;SDS011;36508;52.512;13.450;2023-07-31T01:39:37;3.97;;;2.87;;
50555;SDS011;36508;52.512;13.450;2023-07-31T01:42:03;3.10;;;2.80;;
50555;SDS011;36508;52.512;13.450;2023-07-31T01:44:29;3.40;;;3.10;;
50555;SDS011;36508;52.512;13.450;2023-07-31T01:46:54;3.53;;;3.00;;
50555;SDS011;36508;52.512;13.450;2023-07-31T01:49:20;3.73;;;3.30;;
50555;SDS011;36508;52.512;13.450;2023-07-31T01:51:45;2.90;;;2.37;;
50555;SDS011;36508;52.512;13.450;2023-07-31T01:54:11;6.23;;;2.77;;
50555;SDS011;36508;52.512;13.450;2023-07-31T01:56:36;2.70;;;2.60;;
50555;SDS011;36508;52.512;13.450;2023-07-31T01:59:02;4.07;;;3.63;;
50555;SDS011;36508;52.512;13.450;2023-07-31T02:01:27;4.73;;;2.90;;
50555;SDS011;36508;52.512;13.450;2023-07-31T02:03:53;5.30;;;2.67;;
50555;SDS011;36508;52.512;13.450;2023-07-31T02:06:19;5.73;;;2.80;;
50555;SDS011;36508;52.512;13.450;2023-07-31T02:08:44;2.70;;;2.50;;
50555;SDS011;36508;52.512;13.450;2023-07-31T02:11:10;3.63;;;3.33;;
50555;SDS011;36508;52.512;13.450;2023-07-31T02:13:35;4.43;;;3.20;;
50555;SDS011;36508;52.512;13.450;2023-07-31T02:16:01;4.13;;;3.70;;
50555;SDS011;36508;52.512;13.450;2023-07-31T02:18:27;3.43;;;3.20;;
50555;SDS011;36508;52.512;13.450;2023-07-31T02:20:56;5.50;;;3.70;;
50555;SDS011;36508;52.512;13.450;2023-07-31T02:23:21;6.70;;;4.77;;
50555;SDS011;36508;52.512;13.450;2023-07-31T02:25:47;3.50;;;3.20;;
50555;SDS011;36508;52.512;13.450;2023-07-31T02:28:12;2.90;;;2.43;;
50555;SDS011;36508;52.512;13.450;2023-07-31T02:30:38;3.90;;;3.60;;
50555;SDS011;36508;52.512;13.450;2023-07-31T02:33:04;4.43;;;3.97;;
50555;SDS011;36508;52.512;13.450;2023-07-31T02:35:30;4.07;;;3.53;;
50555;SDS011;36508;52.512;13.450;2023-07-31T02:37:56;3.43;;;2.93;;
50555;SDS011;36508;52.512;13.450;2023-07-31T02:40:21;3.03;;;2.83;;
50555;SDS011;36508;52.512;13.450;2023-07-31T02:42:48;2.70;;;2.57;;
50555;SDS011;36508;52.512;13.450;2023-07-31T02:45:14;4.20;;;3.20;;
50555;SDS011;36508;52.512;13.450;2023-07-31T02:47:39;3.43;;;3.13;;
50555;SDS011;36508;52.512;13.450;2023-07-31T02:50:05;3.50;;;3.00;;
50555;SDS011;36508;52.512;13.450;2023-07-31T02:52:31;3.90;;;3.47;;
50555;SDS011;36508;52.512;13.450;2023-07-31T02:54:57;4.27;;;3.87;;
50555;SDS011;36508;52.512;13.450;2023-07-31T02:57:23;4.07;;;3.63;;
50555;SDS011;36508;52.512;13.450;2023-07-31T02:59:48;3.83;;;3.63;;
50555;SDS011;36508;52.512;13.450;2023-07-31T03:02:14;4.77;;;4.33;;
50555;SDS011;36508;52.512;13.450;2023-07-31T03:04:39;4.30;;;4.00;;
50555;SDS011;36508;52.512;13.450;2023-07-31T03:07:05;4.40;;;4.13;;
50555;SDS011;36508;52.512;13.450;2023-07-31T03:09:30;4.87;;;4.47;;
50555;SDS011;36508;52.512;13.450;2023-07-31T03:11:56;5.97;;;4.53;;
50555;SDS011;36508;52.512;13.450;2023-07-31T03:14:22;5.80;;;5.30;;
50555;SDS011;36508;52.512;13.450;2023-07-31T03:16:48;5.00;;;4.13;;
50555;SDS011;36508;52.512;13.450;2023-07-31T03:19:14;6.03;;;4.63;;
50555;SDS011;36508;52.512;13.450;2023-07-31T03:21:39;6.93;;;5.70;;
50555;SDS011;36508;52.512;13.450;2023-07-31T03:24:05;7.03;;;4.67;;
50555;SDS011;36508;52.512;13.450;2023-07-31T03:26:31;5.53;;;5.13;;
50555;SDS011;36508;52.512;13.450;2023-07-31T03:28:57;9.13;;;4.43;;
50555;SDS011;36508;52.512;13.450;2023-07-31T03:31:23;5.90;;;5.50;;
50555;SDS011;36508;52.512;13.450;2023-07-31T03:33:48;7.20;;;6.07;;
50555;SDS011;36508;52.512;13.450;2023-07-31T03:36:14;5.73;;;5.13;;
50555;SDS011;36508;52.512;13.450;2023-07-31T03:38:40;5.90;;;4.80;;
50555;SDS011;36508;52.512;13.450;2023-07-31T03:41:05;8.10;;;5.00;;
50555;SDS011;36508;52.512;13.450;2023-07-31T03:43:31;5.07;;;4.77;;
50555;SDS011;36508;52.512;13.450;2023-07-31T03:45:58;5.50;;;5.10;;
50555;SDS011;36508;52.512;13.450;2023-07-31T03:48:25;5.43;;;4.97;;
50555;SDS011;36508;52.512;13.450;2023-07-31T03:50:50;4.63;;;4.30;;
50555;SDS011;36508;52.512;13.450;2023-07-31T03:53:16;5.90;;;5.00;;
50555;SDS011;36508;52.512;13.450;2023-07-31T03:55:42;8.90;;;5.20;;
50555;SDS011;36508;52.512;13.450;2023-07-31T03:58:07;7.17;;;6.43;;
50555;SDS011;36508;52.512;13.450;2023-07-31T04:00:33;5.63;;;5.33;;
50555;SDS011;36508;52.512;13.450;2023-07-31T04:02:58;8.60;;;5.80;;
50555;SDS011;36508;52.512;13.450;2023-07-31T04:05:24;5.77;;;5.27;;
50555;SDS011;36508;52.512;13.450;2023-07-31T04:07:49;5.70;;;4.50;;
50555;SDS011;36508;52.512;13.450;2023-07-31T04:10:15;6.30;;;5.70;;
50555;SDS011;36508;52.512;13.450;2023-07-31T04:12:40;6.20;;;5.90;;
50555;SDS011;36508;52.512;13.450;2023-07-31T04:15:06;5.83;;;5.47;;
50555;SDS011;36508;52.512;13.450;2023-07-31T04:17:32;5.20;;;4.87;;
50555;SDS011;36508;52.512;13.450;2023-07-31T04:19:57;8.33;;;5.20;;
50555;SDS011;36508;52.512;13.450;2023-07-31T04:22:23;5.20;;;4.90;;
50555;SDS011;36508;52.512;13.450;2023-07-31T04:24:49;9.57;;;6.00;;
50555;SDS011;36508;52.512;13.450;2023-07-31T04:27:14;5.20;;;4.80;;
50555;SDS011;36508;52.512;13.450;2023-07-31T04:29:40;6.03;;;5.53;;
50555;SDS011;36508;52.512;13.450;2023-07-31T04:32:07;5.43;;;5.13;;
50555;SDS011;36508;52.512;13.450;2023-07-31T04:34:33;6.30;;;5.80;;
50555;SDS011;36508;52.512;13.450;2023-07-31T04:36:59;5.40;;;5.10;;
50555;SDS011;36508;52.512;13.450;2023-07-31T04:39:24;8.17;;;6.07;;
50555;SDS011;36508;52.512;13.450;2023-07-31T04:41:50;7.20;;;4.50;;
50555;SDS011;36508;52.512;13.450;2023-07-31T04:44:15;4.70;;;4.40;;
50555;SDS011;36508;52.512;13.450;2023-07-31T04:46:41;6.03;;;4.80;;
50555;SDS011;36508;52.512;13.450;2023-07-31T04:49:06;7.20;;;5.43;;
50555;SDS011;36508;52.512;13.450;2023-07-31T04:51:32;5.30;;;4.73;;
50555;SDS011;36508;52.512;13.450;2023-07-31T04:53:58;5.83;;;4.40;;
50555;SDS011;36508;52.512;13.450;2023-07-31T04:56:23;6.00;;;5.60;;
50555;SDS011;36508;52.512;13.450;2023-07-31T04:58:49;5.93;;;5.43;;
50555;SDS011;36508;52.512;13.450;2023-07-31T05:01:14;9.40;;;6.07;;
50555;SDS011;36508;52.512;13.450;2023-07-31T05:03:40;7.27;;;5.37;;
50555;SDS011;36508;52.512;13.450;2023-07-31T05:06:05;5.97;;;5.10;;
50555;SDS011;36508;52.512;13.450;2023-07-31T05:08:31;5.83;;;5.33;;
50555;SDS011;36508;52.512;13.450;2023-07-31T05:10:56;8.57;;;4.90;;
50555;SDS011;36508;52.512;13.450;2023-07-31T05:13:22;4.80;;;4.50;;
50555;SDS011;36508;52.512;13.450;2023-07-31T05:15:47;6.30;;;5.70;;
50555;SDS011;36508;52.512;13.450;2023-07-31T05:18:14;5.57;;;5.00;;
50555;SDS011;36508;52.512;13.450;2023-07-31T05:20:40;10.87;;;5.03;;
50555;SDS011;36508;52.512;13.450;2023-07-31T05:23:06;7.57;;;5.30;;
50555;SDS011;36508;52.512;13.450;2023-07-31T05:25:31;5.07;;;4.77;;
50555;SDS011;36508;52.512;13.450;2023-07-31T05:27:57;5.00;;;4.70;;
50555;SDS011;36508;52.512;13.450;2023-07-31T05:30:22;6.30;;;3.80;;
50555;SDS011;36508;52.512;13.450;2023-07-31T05:32:48;9.37;;;5.10;;
50555;SDS011;36508;52.512;13.450;2023-07-31T05:35:14;5.53;;;4.27;;
50555;SDS011;36508;52.512;13.450;2023-07-31T05:37:39;4.50;;;4.10;;
50555;SDS011;36508;52.512;13.450;2023-07-31T05:40:05;6.97;;;4.33;;
50555;SDS011;36508;52.512;13.450;2023-07-31T05:42:31;6.53;;;5.57;;
50555;SDS011;36508;52.512;13.450;2023-07-31T05:44:56;6.60;;;5.97;;
50555;SDS011;36508;52.512;13.450;2023-07-31T05:47:22;11.33;;;4.57;;
50555;SDS011;36508;52.512;13.450;2023-07-31T05:49:48;4.80;;;3.90;;
50555;SDS011;36508;52.512;13.450;2023-07-31T05:52:14;7.03;;;4.83;;
50555;SDS011;36508;52.512;13.450;2023-07-31T05:54:40;6.03;;;4.40;;
50555;SDS011;36508;52.512;13.450;2023-07-31T05:57:06;5.10;;;4.73;;
50555;SDS011;36508;52.512;13.450;2023-07-31T05:59:32;5.40;;;3.57;;
50555;SDS011;36508;52.512;13.450;2023-07-31T06:01:58;11.30;;;5.67;;
50555;SDS011;36508;52.512;13.450;2023-07-31T06:04:24;4.70;;;4.40;;
50555;SDS011;36508;52.512;13.450;2023-07-31T06:06:50;4.97;;;4.53;;
50555;SDS011;36508;52.512;13.450;2023-07-31T06:09:16;5.33;;;4.83;;
50555;SDS011;36508;52.512;13.450;2023-07-31T06:11:41;5.57;;;4.73;;
50555;SDS011;36508;52.512;13.450;2023-07-31T06:14:07;4.50;;;3.30;;
50555;SDS011;36508;52.512;13.450;2023-07-31T06:16:33;11.70;;;4.73;;
50555;SDS011;36508;52.512;13.450;2023-07-31T06:18:58;4.30;;;3.97;;
50555;SDS011;36508;52.512;13.450;2023-07-31T06:21:24;7.33;;;4.23;;
50555;SDS011;36508;52.512;13.450;2023-07-31T06:23:49;6.60;;;4.10;;
50555;SDS011;36508;52.512;13.450;2023-07-31T06:26:15;5.00;;;4.53;;
50555;SDS011;36508;52.512;13.450;2023-07-31T06:28:42;5.77;;;4.77;;
50555;SDS011;36508;52.512;13.450;2023-07-31T06:31:08;6.57;;;4.00;;
50555;SDS011;36508;52.512;13.450;2023-07-31T06:33:34;5.57;;;4.27;;
50555;SDS011;36508;52.512;13.450;2023-07-31T06:35:59;7.07;;;4.23;;
50555;SDS011;36508;52.512;13.450;2023-07-31T06:38:25;4.97;;;4.40;;
50555;SDS011;36508;52.512;13.450;2023-07-31T06:40:51;4.20;;;3.57;;
50555;SDS011;36508;52.512;13.450;2023-07-31T06:43:17;4.30;;;4.00;;
50555;SDS011;36508;52.512;13.450;2023-07-31T06:45:43;9.03;;;4.70;;
50555;SDS011;36508;52.512;13.450;2023-07-31T06:48:09;4.60;;;4.30;;
50555;SDS011;36508;52.512;13.450;2023-07-31T06:50:34;7.90;;;4.67;;
50555;SDS011;36508;52.512;13.450;2023-07-31T06:53:00;6.20;;;4.23;;
50555;SDS011;36508;52.512;13.450;2023-07-31T06:55:25;3.70;;;3.40;;
50555;SDS011;36508;52.512;13.450;2023-07-31T06:57:52;3.20;;;2.97;;
50555;SDS011;36508;52.512;13.450;2023-07-31T07:00:20;4.30;;;3.87;;
50555;SDS011;36508;52.512;13.450;2023-07-31T07:02:46;4.70;;;4.00;;
50555;SDS011;36508;52.512;13.450;2023-07-31T07:05:13;4.40;;;4.00;;
50555;SDS011;36508;52.512;13.450;2023-07-31T07:07:39;3.70;;;3.50;;
50555;SDS011;36508;52.512;13.450;2023-07-31T07:10:06;3.97;;;3.27;;
50555;SDS011;36508;52.512;13.450;2023-07-31T07:12:32;4.10;;;3.30;;
50555;SDS011;36508;52.512;13.450;2023-07-31T07:14:58;5.37;;;3.90;;
50555;SDS011;36508;52.512;13.450;2023-07-31T07:17:25;4.00;;;3.53;;
50555;SDS011;36508;52.512;13.450;2023-07-31T07:19:51;5.30;;;4.37;;
50555;SDS011;36508;52.512;13.450;2023-07-31T07:22:17;3.37;;;2.93;;
50555;SDS011;36508;52.512;13.450;2023-07-31T07:24:43;4.00;;;3.00;;
50555;SDS011;36508;52.512;13.450;2023-07-31T07:27:08;5.80;;;3.63;;
50555;SDS011;36508;52.512;13.450;2023-07-31T07:29:34;4.03;;;3.50;;
50555;SDS011;36508;52.512;13.450;2023-07-31T07:32:00;3.80;;;2.80;;
50555;SDS011;36508;52.512;13.450;2023-07-31T07:34:26;3.57;;;3.37;;
50555;SDS011;36508;52.512;13.450;2023-07-31T07:36:52;5.83;;;4.40;;
50555;SDS011;36508;52.512;13.450;2023-07-31T07:39:18;9.80;;;4.03;;
50555;SDS011;36508;52.512;13.450;2023-07-31T07:41:45;4.03;;;3.70;;
50555;SDS011;36508;52.512;13.450;2023-07-31T07:44:11;4.10;;;3.80;;
50555;SDS011;36508;52.512;13.450;2023-07-31T07:46:37;3.43;;;3.13;;
50555;SDS011;36508;52.512;13.450;2023-07-31T07:49:03;3.57;;;3.33;;
50555;SDS011;36508;52.512;13.450;2023-07-31T07:51:29;4.30;;;4.00;;
50555;SDS011;36508;52.512;13.450;2023-07-31T07:53:56;5.27;;;4.40;;
50555;SDS011;36508;52.512;13.450;2023-07-31T07:56:22;3.40;;;3.10;;
50555;SDS011;36508;52.512;13.450;2023-07-31T07:58:49;6.27;;;3.60;;
50555;SDS011;36508;52.512;13.450;2023-07-31T08:01:15;3.47;;;3.23;;
50555;SDS011;36508;52.512;13.450;2023-07-31T08:03:41;4.77;;;3.97;;
50555;SDS011;36508;52.512;13.450;2023-07-31T08:06:06;4.90;;;2.73;;
50555;SDS011;36508;52.512;13.450;2023-07-31T08:08:34;3.50;;;3.17;;
50555;SDS011;36508;52.512;13.450;2023-07-31T08:11:00;8.93;;;4.70;;
50555;SDS011;36508;52.512;13.450;2023-07-31T08:13:25;4.50;;;3.33;;
50555;SDS011;36508;52.512;13.450;2023-07-31T08:15:51;3.43;;;3.20;;
50555;SDS011;36508;52.512;13.450;2023-07-31T08:18:17;3.30;;;3.10;;
50555;SDS011;36508;52.512;13.450;2023-07-31T08:20:44;2.73;;;2.53;;
50555;SDS011;36508;52.512;13.450;2023-07-31T08:23:09;4.27;;;3.87;;
50555;SDS011;36508;52.512;13.450;2023-07-31T08:25:35;3.37;;;3.17;;
50555;SDS011;36508;52.512;13.450;2023-07-31T08:28:04;2.63;;;2.53;;
50555;SDS011;36508;52.512;13.450;2023-07-31T08:30:31;3.20;;;3.00;;
50555;SDS011;36508;52.512;13.450;2023-07-31T08:32:57;4.10;;;3.53;;
50555;SDS011;36508;52.512;13.450;2023-07-31T08:35:23;3.30;;;3.00;;
50555;SDS011;36508;52.512;13.450;2023-07-31T08:37:49;3.43;;;3.13;;
50555;SDS011;36508;52.512;13.450;2023-07-31T08:40:15;3.33;;;3.07;;
50555;SDS011;36508;52.512;13.450;2023-07-31T08:42:44;3.67;;;3.33;;
50555;SDS011;36508;52.512;13.450;2023-07-31T08:45:13;3.60;;;3.30;;
50555;SDS011;36508;52.512;13.450;2023-07-31T08:47:47;3.53;;;2.40;;
50555;SDS011;36508;52.512;13.450;2023-07-31T08:50:14;2.80;;;2.53;;
50555;SDS011;36508;52.512;13.450;2023-07-31T08:52:41;8.43;;;3.50;;
50555;SDS011;36508;52.512;13.450;2023-07-31T08:55:07;4.07;;;3.53;;
50555;SDS011;36508;52.512;13.450;2023-07-31T08:57:34;3.27;;;3.07;;
50555;SDS011;36508;52.512;13.450;2023-07-31T09:00:01;2.60;;;2.47;;
50555;SDS011;36508;52.512;13.450;2023-07-31T09:02:31;3.17;;;2.97;;
50555;SDS011;36508;52.512;13.450;2023-07-31T09:05:05;2.60;;;2.40;;
50555;SDS011;36508;52.512;13.450;2023-07-31T09:07:32;3.23;;;2.73;;
50555;SDS011;36508;52.512;13.450;2023-07-31T09:10:00;2.87;;;2.67;;
50555;SDS011;36508;52.512;13.450;2023-07-31T09:12:25;3.30;;;3.00;;
50555;SDS011;36508;52.512;13.450;2023-07-31T09:14:51;4.37;;;2.77;;
50555;SDS011;36508;52.512;13.450;2023-07-31T09:17:27;2.40;;;2.20;;
50555;SDS011;36508;52.512;13.450;2023-07-31T09:19:57;3.43;;;3.23;;
50555;SDS011;36508;52.512;13.450;2023-07-31T09:22:37;2.90;;;2.70;;
50555;SDS011;36508;52.512;13.450;2023-07-31T09:25:22;3.20;;;2.47;;
50555;SDS011;36508;52.512;13.450;2023-07-31T09:27:59;3.20;;;2.87;;
50555;SDS011;36508;52.512;13.450;2023-07-31T09:30:25;2.30;;;2.20;;
50555;SDS011;36508;52.512;13.450;2023-07-31T09:32:52;2.80;;;2.23;;
50555;SDS011;36508;52.512;13.450;2023-07-31T09:35:31;4.10;;;2.20;;
50555;SDS011;36508;52.512;13.450;2023-07-31T09:37:59;2.90;;;2.33;;
50555;SDS011;36508;52.512;13.450;2023-07-31T09:40:32;2.80;;;2.20;;
50555;SDS011;36508;52.512;13.450;2023-07-31T09:43:00;2.30;;;2.10;;
50555;SDS011;36508;52.512;13.450;2023-07-31T09:45:33;1.70;;;1.60;;
50555;SDS011;36508;52.512;13.450;2023-07-31T09:48:01;1.93;;;1.70;;
50555;SDS011;36508;52.512;13.450;2023-07-31T09:50:27;1.73;;;1.63;;
50555;SDS011;36508;52.512;13.450;2023-07-31T09:52:54;2.27;;;2.17;;
50555;SDS011;36508;52.512;13.450;2023-07-31T09:55:20;1.40;;;1.33;;
50555;SDS011;36508;52.512;13.450;2023-07-31T09:57:46;1.80;;;1.70;;
50555;SDS011;36508;52.512;13.450;2023-07-31T10:00:14;2.17;;;2.07;;
50555;SDS011;36508;52.512;13.450;2023-07-31T10:02:41;2.57;;;2.03;;
50555;SDS011;36508;52.512;13.450;2023-07-31T10:05:13;2.37;;;1.97;;
50555;SDS011;36508;52.512;13.450;2023-07-31T10:07:43;2.30;;;2.20;;
50555;SDS011;36508;52.512;13.450;2023-07-31T10:10:15;2.57;;;2.47;;
50555;SDS011;36508;52.512;13.450;2023-07-31T10:12:41;2.10;;;2.00;;
50555;SDS011;36508;52.512;13.450;2023-07-31T10:15:09;2.70;;;2.23;;
50555;SDS011;36508;52.512;13.450;2023-07-31T10:17:35;3.17;;;2.97;;
50555;SDS011;36508;52.512;13.450;2023-07-31T10:20:02;3.77;;;3.57;;
50555;SDS011;36508;52.512;13.450;2023-07-31T10:22:31;4.07;;;3.20;;
50555;SDS011;36508;52.512;13.450;2023-07-31T10:24:58;8.33;;;4.10;;
50555;SDS011;36508;52.512;13.450;2023-07-31T10:27:24;4.37;;;4.00;;
50555;SDS011;36508;52.512;13.450;2023-07-31T10:29:51;4.30;;;4.03;;
50555;SDS011;36508;52.512;13.450;2023-07-31T10:32:19;4.40;;;3.53;;
50555;SDS011;36508;52.512;13.450;2023-07-31T10:34:46;4.60;;;4.40;;
50555;SDS011;36508;52.512;13.450;2023-07-31T10:37:22;6.13;;;5.20;;
50555;SDS011;36508;52.512;13.450;2023-07-31T10:40:03;6.27;;;5.70;;
50555;SDS011;36508;52.512;13.450;2023-07-31T10:42:50;6.53;;;4.57;;
50555;SDS011;36508;52.512;13.450;2023-07-31T10:45:24;4.20;;;3.90;;
50555;SDS011;36508;52.512;13.450;2023-07-31T10:48:00;6.13;;;4.87;;
50555;SDS011;36508;52.512;13.450;2023-07-31T10:50:27;5.90;;;4.53;;
50555;SDS011;36508;52.512;13.450;2023-07-31T10:55:33;7.00;;;6.47;;
50555;SDS011;36508;52.512;13.450;2023-07-31T10:58:11;5.80;;;5.17;;
50555;SDS011;36508;52.512;13.450;2023-07-31T11:00:38;6.33;;;5.73;;
50555;SDS011;36508;52.512;13.450;2023-07-31T11:03:09;4.87;;;4.33;;
50555;SDS011;36508;52.512;13.450;2023-07-31T11:08:15;4.33;;;3.90;;
50555;SDS011;36508;52.512;13.450;2023-07-31T11:10:43;5.03;;;4.73;;
50555;SDS011;36508;52.512;13.450;2023-07-31T11:13:09;12.40;;;11.10;;
50555;SDS011;36508;52.512;13.450;2023-07-31T11:15:35;10.83;;;8.27;;
50555;SDS011;36508;52.512;13.450;2023-07-31T11:18:01;6.23;;;3.40;;
50555;SDS011;36508;52.512;13.450;2023-07-31T11:20:31;6.20;;;3.97;;
50555;SDS011;36508;52.512;13.450;2023-07-31T11:23:05;5.63;;;5.13;;
50555;SDS011;36508;52.512;13.450;2023-07-31T11:25:32;2.73;;;2.50;;
50555;SDS011;36508;52.512;13.450;2023-07-31T11:28:16;4.30;;;4.00;;
50555;SDS011;36508;52.512;13.450;2023-07-31T11:30:44;4.93;;;4.53;;
50555;SDS011;36508;52.512;13.450;2023-07-31T11:33:11;4.43;;;4.13;;
50555;SDS011;36508;52.512;13.450;2023-07-31T11:35:43;4.20;;;3.90;;
50555;SDS011;36508;52.512;13.450;2023-07-31T11:38:23;4.03;;;3.73;;
50555;SDS011;36508;52.512;13.450;2023-07-31T11:40:53;4.93;;;3.97;;
50555;SDS011;36508;52.512;13.450;2023-07-31T11:43:20;3.80;;;3.60;;
50555;SDS011;36508;52.512;13.450;2023-07-31T11:45:47;3.53;;;3.13;;
50555;SDS011;36508;52.512;13.450;2023-07-31T11:48:26;4.47;;;3.90;;
50555;SDS011;36508;52.512;13.450;2023-07-31T11:50:58;3.50;;;3.10;;
50555;SDS011;36508;52.512;13.450;2023-07-31T11:53:47;5.17;;;4.17;;
50555;SDS011;36508;52.512;13.450;2023-07-31T11:56:17;7.23;;;3.37;;
50555;SDS011;36508;52.512;13.450;2023-07-31T11:58:44;3.80;;;3.50;;
50555;SDS011;36508;52.512;13.450;2023-07-31T12:01:11;4.30;;;3.90;;
50555;SDS011;36508;52.512;13.450;2023-07-31T12:03:40;3.60;;;3.30;;
50555;SDS011;36508;52.512;13.450;2023-07-31T12:06:07;6.03;;;4.03;;
50555;SDS011;36508;52.512;13.450;2023-07-31T12:08:33;4.43;;;4.00;;
50555;SDS011;36508;52.512;13.450;2023-07-31T12:11:05;5.83;;;5.43;;
50555;SDS011;36508;52.512;13.450;2023-07-31T12:13:32;5.57;;;3.97;;
50555;SDS011;36508;52.512;13.450;2023-07-31T12:15:59;8.97;;;4.60;;
50555;SDS011;36508;52.512;13.450;2023-07-31T12:18:27;8.13;;;7.43;;
50555;SDS011;36508;52.512;13.450;2023-07-31T12:23:25;6.63;;;5.20;;
50555;SDS011;36508;52.512;13.450;2023-07-31T12:28:45;4.20;;;3.83;;
50555;SDS011;36508;52.512;13.450;2023-07-31T12:31:13;4.70;;;4.20;;
50555;SDS011;36508;52.512;13.450;2023-07-31T12:33:49;5.07;;;3.50;;
50555;SDS011;36508;52.512;13.450;2023-07-31T12:36:16;3.87;;;3.57;;
50555;SDS011;36508;52.512;13.450;2023-07-31T12:38:43;2.77;;;2.53;;
50555;SDS011;36508;52.512;13.450;2023-07-31T12:41:09;7.00;;;4.07;;
50555;SDS011;36508;52.512;13.450;2023-07-31T12:43:36;3.97;;;3.60;;
50555;SDS011;36508;52.512;13.450;2023-07-31T12:46:02;3.67;;;3.27;;
50555;SDS011;36508;52.512;13.450;2023-07-31T12:48:28;3.70;;;3.40;;
50555;SDS011;36508;52.512;13.450;2023-07-31T12:50:54;4.17;;;3.27;;
50555;SDS011;36508;52.512;13.450;2023-07-31T12:53:19;4.23;;;3.27;;
50555;SDS011;36508;52.512;13.450;2023-07-31T12:55:46;3.50;;;3.10;;
50555;SDS011;36508;52.512;13.450;2023-07-31T12:58:12;2.57;;;2.40;;
50555;SDS011;36508;52.512;13.450;2023-07-31T13:00:38;3.40;;;3.10;;
50555;SDS011;36508;52.512;13.450;2023-07-31T13:03:03;4.50;;;3.63;;
50555;SDS011;36508;52.512;13.450;2023-07-31T13:05:29;4.80;;;2.43;;
50555;SDS011;36508;52.512;13.450;2023-07-31T13:07:55;3.43;;;2.93;;
50555;SDS011;36508;52.512;13.450;2023-07-31T13:10:21;2.30;;;2.20;;
50555;SDS011;36508;52.512;13.450;2023-07-31T13:12:47;3.43;;;3.23;;
50555;SDS011;36508;52.512;13.450;2023-07-31T13:15:13;4.07;;;2.47;;
50555;SDS011;36508;52.512;13.450;2023-07-31T13:17:39;3.10;;;2.90;;
50555;SDS011;36508;52.512;13.450;2023-07-31T13:20:05;2.87;;;2.67;;
50555;SDS011;36508;52.512;13.450;2023-07-31T13:22:31;2.30;;;2.20;;
50555;SDS011;36508;52.512;13.450;2023-07-31T13:24:56;3.00;;;2.80;;
50555;SDS011;36508;52.512;13.450;2023-07-31T13:27:22;3.20;;;2.83;;
50555;SDS011;36508;52.512;13.450;2023-07-31T13:29:49;3.07;;;2.80;;
50555;SDS011;36508;52.512;13.450;2023-07-31T13:32:18;2.70;;;2.50;;
50555;SDS011;36508;52.512;13.450;2023-07-31T13:34:45;2.70;;;2.60;;
50555;SDS011;36508;52.512;13.450;2023-07-31T13:37:11;3.70;;;3.40;;
50555;SDS011;36508;52.512;13.450;2023-07-31T13:39:37;3.33;;;3.20;;
50555;SDS011;36508;52.512;13.450;2023-07-31T13:42:03;3.27;;;2.60;;
50555;SDS011;36508;52.512;13.450;2023-07-31T13:44:36;2.60;;;2.10;;
50555;SDS011;36508;52.512;13.450;2023-07-31T13:47:04;3.63;;;3.33;;
50555;SDS011;36508;52.512;13.450;2023-07-31T13:49:30;3.30;;;3.10;;
50555;SDS011;36508;52.512;13.450;2023-07-31T13:51:56;3.33;;;3.13;;
50555;SDS011;36508;52.512;13.450;2023-07-31T13:54:23;4.03;;;3.73;;
50555;SDS011;36508;52.512;13.450;2023-07-31T13:56:49;4.73;;;4.40;;
50555;SDS011;36508;52.512;13.450;2023-07-31T13:59:15;3.37;;;3.10;;
50555;SDS011;36508;52.512;13.450;2023-07-31T14:01:41;4.30;;;3.90;;
50555;SDS011;36508;52.512;13.450;2023-07-31T14:04:07;4.40;;;3.50;;
50555;SDS011;36508;52.512;13.450;2023-07-31T14:06:33;4.50;;;4.20;;
50555;SDS011;36508;52.512;13.450;2023-07-31T14:08:59;5.10;;;3.93;;
50555;SDS011;36508;52.512;13.450;2023-07-31T14:11:24;3.93;;;3.63;;
50555;SDS011;36508;52.512;13.450;2023-07-31T14:13:51;5.40;;;4.17;;
50555;SDS011;36508;52.512;13.450;2023-07-31T14:16:16;5.00;;;4.60;;
50555;SDS011;36508;52.512;13.450;2023-07-31T14:18:42;4.73;;;4.20;;
50555;SDS011;36508;52.512;13.450;2023-07-31T14:21:08;5.60;;;4.83;;
50555;SDS011;36508;52.512;13.450;2023-07-31T14:23:34;3.90;;;3.70;;
50555;SDS011;36508;52.512;13.450;2023-07-31T14:25:59;4.50;;;3.20;;
50555;SDS011;36508;52.512;13.450;2023-07-31T14:28:25;6.30;;;4.80;;
50555;SDS011;36508;52.512;13.450;2023-07-31T14:30:50;5.37;;;4.87;;
50555;SDS011;36508;52.512;13.450;2023-07-31T14:33:16;4.60;;;4.30;;
50555;SDS011;36508;52.512;13.450;2023-07-31T14:35:42;4.83;;;4.17;;
50555;SDS011;36508;52.512;13.450;2023-07-31T14:38:07;4.70;;;4.30;;
50555;SDS011;36508;52.512;13.450;2023-07-31T14:40:33;3.73;;;3.47;;
50555;SDS011;36508;52.512;13.450;2023-07-31T14:42:58;3.70;;;3.40;;
50555;SDS011;36508;52.512;13.450;2023-07-31T14:45:24;4.60;;;3.80;;
50555;SDS011;36508;52.512;13.450;2023-07-31T14:47:50;4.47;;;4.17;;
50555;SDS011;36508;52.512;13.450;2023-07-31T14:50:15;5.10;;;4.23;;